Time;durP1;ratioP1;P1;durP2;ratioP2;P2;SDS_P1;SDS_P2;PMS_P1;PMS_P2;Temp;Humidity;BMP_temperature;BMP_pressure;BME280_temperature;BME280_humidity;BME280_pressure;Samples;Min_cycle;Max_cycle;Signal;HPM_P1;HPM_P2
2023/09/11 00:02:08;;;;;;;3.65;3.20;;;20.60;99.90;;;;;;4861922;29;20071;-75
2023/09/11 00:04:34;;;;;;;3.20;2.90;;;20.60;99.90;;;;;;4860437;29;20472;-75
2023/09/11 00:07:01;;;;;;;4.18;3.00;;;20.60;99.90;;;;;;4877513;29;20048;-75
2023/09/11 00:09:27;;;;;;;3.60;3.10;;;20.60;99.90;;;;;;4875875;29;20136;-76
2023/09/11 00:11:53;;;;;;;3.90;3.42;;;20.60;99.90;;;;;;4877250;29;20139;-75
2023/09/11 00:14:18;;;;;;;3.40;3.10;;;20.60;99.90;;;;;;4860255;29;20097;-75
2023/09/11 00:16:44;;;;;;;;;;;20.60;99.90;;;;;;4876656;29;20048;-75
2023/09/11 00:19:11;;;;;;;4.20;3.22;;;20.60;99.90;;;;;;4877198;29;19923;-75
2023/09/11 00:21:37;;;;;;;3.15;2.75;;;20.60;99.90;;;;;;4876908;29;20155;-75
2023/09/11 00:24:03;;;;;;;3.30;2.80;;;20.50;99.90;;;;;;4861605;29;20088;-75
2023/09/11 00:26:30;;;;;;;3.22;2.92;;;20.50;99.90;;;;;;4859846;29;20097;-75
2023/09/11 00:28:55;;;;;;;3.78;3.10;;;20.50;99.90;;;;;;4875984;29;20494;-75
2023/09/11 00:31:21;;;;;;;3.25;2.42;;;20.50;99.90;;;;;;4860264;29;20135;-75
2023/09/11 00:33:47;;;;;;;3.33;2.65;;;20.50;99.90;;;;;;4876170;29;20049;-75
2023/09/11 00:36:12;;;;;;;3.17;2.58;;;20.40;99.90;;;;;;4870111;29;20500;-75
2023/09/11 00:38:38;;;;;;;;;;;20.40;99.90;;;;;;4874138;29;20048;-75
2023/09/11 00:41:04;;;;;;;2.97;2.53;;;20.40;99.90;;;;;;4876977;29;19972;-75
2023/09/11 00:43:29;;;;;;;3.33;2.67;;;20.40;99.90;;;;;;4849772;29;20132;-75
2023/09/11 00:45:57;;;;;;;2.97;2.28;;;20.40;99.90;;;;;;4875033;29;20041;-75
2023/09/11 00:48:23;;;;;;;4.35;2.63;;;20.40;99.90;;;;;;4874908;29;20501;-75
2023/09/11 00:50:50;;;;;;;3.40;2.88;;;20.30;99.90;;;;;;4875708;29;20450;-75
2023/09/11 00:53:17;;;;;;;3.58;2.60;;;20.40;99.90;;;;;;4876121;29;20048;-75
2023/09/11 00:55:45;;;;;;;3.35;2.70;;;20.40;99.90;;;;;;4876413;29;20053;-75
2023/09/11 00:58:12;;;;;;;2.72;2.22;;;20.30;99.90;;;;;;4875744;29;20053;-75
2023/09/11 01:00:38;;;;;;;3.30;2.45;;;20.30;99.90;;;;;;4876444;29;20622;-75
2023/09/11 01:03:04;;;;;;;3.00;2.70;;;20.30;99.90;;;;;;4874481;29;20559;-75
2023/09/11 01:05:32;;;;;;;3.78;2.63;;;20.30;99.90;;;;;;4859563;29;20044;-75
2023/09/11 01:07:57;;;;;;;3.38;2.30;;;20.30;99.90;;;;;;4875079;29;20192;-75
2023/09/11 01:10:23;;;;;;;3.67;2.63;;;20.30;99.90;;;;;;4858990;29;20584;-75
2023/09/11 01:12:49;;;;;;;3.03;2.50;;;20.30;99.90;;;;;;4876329;29;20557;-75
2023/09/11 01:15:15;;;;;;;;;;;20.20;99.90;;;;;;4859651;29;20045;-76
2023/09/11 01:17:40;;;;;;;2.60;2.40;;;20.20;99.90;;;;;;4874087;29;20002;-75
2023/09/11 01:20:32;;;;;;;2.30;2.03;;;20.20;99.90;;;;;;4875558;29;20060;-75
2023/09/11 01:23:35;;;;;;;3.15;2.47;;;20.20;99.90;;;;;;4876770;29;20136;-75
2023/09/11 01:26:19;;;;;;;3.03;2.58;;;20.20;99.90;;;;;;4860571;29;20200;-75
2023/09/11 01:29:03;;;;;;;2.80;2.30;;;20.20;99.90;;;;;;4873981;29;20057;-75
2023/09/11 01:31:34;;;;;;;2.95;2.60;;;20.20;99.90;;;;;;4875535;29;20100;-75
2023/09/11 01:34:01;;;;;;;2.70;2.50;;;20.20;99.90;;;;;;4874044;29;20052;-75
2023/09/11 01:36:26;;;;;;;3.22;2.78;;;20.10;99.90;;;;;;4874669;29;20177;-75
2023/09/11 01:38:52;;;;;;;2.70;2.28;;;20.10;99.90;;;;;;4874325;29;20056;-75
2023/09/11 01:41:19;;;;;;;;;;;20.10;99.90;;;;;;4860014;29;20465;-75
2023/09/11 01:43:46;;;;;;;3.72;2.67;;;20.10;99.90;;;;;;4874214;29;19924;-75
2023/09/11 01:46:13;;;;;;;3.72;2.50;;;20.10;99.90;;;;;;4874773;29;20057;-75
2023/09/11 01:48:42;;;;;;;4.38;2.58;;;20.00;99.90;;;;;;4874428;29;20442;-75
2023/09/11 01:51:08;;;;;;;4.40;2.72;;;20.00;99.90;;;;;;4866029;29;20430;-75
2023/09/11 01:53:34;;;;;;;3.85;2.50;;;20.00;99.90;;;;;;4857796;29;20067;-75
2023/09/11 01:56:00;;;;;;;2.60;2.33;;;20.00;99.90;;;;;;4875451;29;20554;-75
2023/09/11 01:58:25;;;;;;;2.33;2.05;;;19.90;99.90;;;;;;4874791;29;20056;-75
2023/09/11 02:00:51;;;;;;;2.95;2.58;;;19.90;99.90;;;;;;4873096;29;20480;-75
2023/09/11 02:03:17;;;;;;;2.90;2.30;;;19.90;99.90;;;;;;4840514;29;20045;-75
2023/09/11 02:05:42;;;;;;;3.30;2.70;;;19.90;99.90;;;;;;4867462;29;20132;-75
2023/09/11 02:08:08;;;;;;;;;;;19.90;99.90;;;;;;4873425;29;20057;-75
2023/09/11 02:10:34;;;;;;;3.00;2.50;;;19.90;99.90;;;;;;4875160;29;19923;-75
2023/09/11 02:12:59;;;;;;;5.45;3.40;;;19.80;99.90;;;;;;4875031;29;20073;-75
2023/09/11 02:15:25;;;;;;;3.60;2.50;;;19.80;99.90;;;;;;4874875;29;20114;-75
2023/09/11 02:17:51;;;;;;;4.07;2.60;;;19.80;99.90;;;;;;4873557;29;20104;-75
2023/09/11 02:20:16;;;;;;;3.42;2.83;;;19.80;99.90;;;;;;4856987;29;20060;-75
2023/09/11 02:22:42;;;;;;;2.88;2.63;;;19.80;99.90;;;;;;4860095;29;20056;-75
2023/09/11 02:25:08;;;;;;;;;;;19.80;99.90;;;;;;4875476;29;20092;-76
2023/09/11 02:27:33;;;;;;;3.67;2.50;;;19.80;99.90;;;;;;4873759;29;20387;-76
2023/09/11 02:29:59;;;;;;;;;;;19.80;99.90;;;;;;4875333;29;20128;-75
2023/09/11 02:32:25;;;;;;;3.28;2.40;;;19.80;99.90;;;;;;4874089;29;19924;-75
2023/09/11 02:34:50;;;;;;;;;;;19.80;99.90;;;;;;4859202;29;20077;-75
2023/09/11 02:37:16;;;;;;;3.10;2.50;;;19.80;99.90;;;;;;4858663;29;20014;-75
2023/09/11 02:39:42;;;;;;;3.30;2.30;;;19.80;99.90;;;;;;4872861;29;20060;-76
2023/09/11 02:42:07;;;;;;;3.05;2.40;;;19.70;99.90;;;;;;4859695;29;20045;-75
2023/09/11 02:44:33;;;;;;;3.67;2.50;;;19.70;99.90;;;;;;4873675;29;20057;-75
2023/09/11 02:46:59;;;;;;;;;;;19.80;99.90;;;;;;4872963;29;20504;-75
2023/09/11 02:49:24;;;;;;;3.75;2.50;;;19.80;99.90;;;;;;4873665;29;19923;-75
2023/09/11 02:51:50;;;;;;;2.97;2.10;;;19.80;99.90;;;;;;4874225;29;20045;-75
2023/09/11 02:54:15;;;;;;;;;;;19.80;99.90;;;;;;4876038;29;20097;-75
2023/09/11 02:56:41;;;;;;;4.18;2.60;;;19.70;99.90;;;;;;4873564;29;20039;-75
2023/09/11 02:59:07;;;;;;;3.55;2.40;;;19.70;99.90;;;;;;4874780;29;20060;-75
2023/09/11 03:01:33;;;;;;;3.25;2.55;;;19.70;99.90;;;;;;4859663;29;20124;-75
2023/09/11 03:03:58;;;;;;;3.05;2.22;;;19.70;99.90;;;;;;4874728;29;20409;-75
2023/09/11 03:06:24;;;;;;;;;;;19.70;99.90;;;;;;4850670;29;20052;-75
2023/09/11 03:08:50;;;;;;;4.82;2.60;;;19.70;99.90;;;;;;4861387;29;19966;-75
2023/09/11 03:11:18;;;;;;;;;;;19.70;99.90;;;;;;4862509;29;20041;-75
2023/09/11 03:13:44;;;;;;;2.67;2.30;;;19.70;99.90;;;;;;4878046;29;20489;-75
2023/09/11 03:16:14;;;;;;;3.58;2.20;;;19.70;99.90;;;;;;4876561;29;20040;-75
2023/09/11 03:18:41;;;;;;;2.88;2.38;;;19.70;99.90;;;;;;4877185;29;20120;-75
2023/09/11 03:21:07;;;;;;;3.63;2.17;;;19.70;99.90;;;;;;4876597;29;20131;-75
2023/09/11 03:23:33;;;;;;;3.30;2.50;;;19.70;99.90;;;;;;4876570;29;20076;-75
2023/09/11 03:25:59;;;;;;;4.25;2.10;;;19.70;99.90;;;;;;4855431;29;20489;-75
2023/09/11 03:28:30;;;;;;;3.58;2.30;;;19.60;99.90;;;;;;4877707;29;20477;-75
2023/09/11 03:30:56;;;;;;;3.15;2.35;;;19.70;99.90;;;;;;4875439;29;20865;-75
2023/09/11 03:33:22;;;;;;;3.88;2.05;;;19.60;99.90;;;;;;4877772;29;20081;-75
2023/09/11 03:35:48;;;;;;;3.97;2.72;;;19.60;99.90;;;;;;4877707;29;20513;-75
2023/09/11 03:38:14;;;;;;;;;;;19.60;99.90;;;;;;4877991;29;20045;-75
2023/09/11 03:40:41;;;;;;;2.75;2.45;;;19.60;99.90;;;;;;4877765;29;19924;-76
2023/09/11 03:43:07;;;;;;;5.43;2.42;;;19.60;99.90;;;;;;4877588;29;20115;-75
2023/09/11 03:45:33;;;;;;;5.13;2.60;;;19.60;99.90;;;;;;4878476;29;20051;-75
2023/09/11 03:47:59;;;;;;;2.92;2.47;;;19.60;99.90;;;;;;4877575;29;20128;-75
2023/09/11 03:50:24;;;;;;;;;;;19.60;99.90;;;;;;4862101;29;20055;-75
2023/09/11 03:52:50;;;;;;;4.65;2.72;;;19.60;99.90;;;;;;4873980;29;19963;-75
2023/09/11 03:55:16;;;;;;;3.35;2.60;;;19.50;99.90;;;;;;4873716;29;20428;-75
2023/09/11 03:57:42;;;;;;;4.80;2.45;;;19.50;99.90;;;;;;4861744;29;20051;-75
2023/09/11 04:00:08;;;;;;;;;;;19.50;99.90;;;;;;4858807;29;20053;-75
2023/09/11 04:02:34;;;;;;;3.42;2.75;;;19.50;99.90;;;;;;4856025;29;20007;-75
2023/09/11 04:05:00;;;;;;;2.75;2.47;;;19.50;99.90;;;;;;4870589;29;20076;-76
2023/09/11 04:07:25;;;;;;;3.47;2.47;;;19.50;99.90;;;;;;4876051;29;20132;-75
2023/09/11 04:09:51;;;;;;;;;;;19.50;99.90;;;;;;4860588;29;20052;-74
2023/09/11 04:12:17;;;;;;;3.45;2.40;;;19.50;99.90;;;;;;4876056;29;19919;-74
2023/09/11 04:14:43;;;;;;;;;;;19.50;99.90;;;;;;4876116;29;20492;-74
2023/09/11 04:17:10;;;;;;;3.47;2.30;;;19.50;99.90;;;;;;4874304;29;19928;-75
2023/09/11 04:19:39;;;;;;;3.25;2.60;;;19.50;99.90;;;;;;4875630;29;20501;-74
2023/09/11 04:22:06;;;;;;;3.38;2.38;;;19.50;99.90;;;;;;4876319;29;20052;-74
2023/09/11 04:24:33;;;;;;;3.00;2.25;;;19.50;99.90;;;;;;4876276;29;20041;-74
2023/09/11 04:26:58;;;;;;;2.67;2.17;;;19.40;99.90;;;;;;4872197;29;20053;-75
2023/09/11 04:29:25;;;;;;;3.42;2.50;;;19.40;99.90;;;;;;4872400;29;20053;-74
2023/09/11 04:31:51;;;;;;;2.95;2.45;;;19.40;99.90;;;;;;4855366;29;20128;-75
2023/09/11 04:34:19;;;;;;;3.95;2.65;;;19.40;99.90;;;;;;4872935;29;20120;-76
2023/09/11 04:36:44;;;;;;;2.95;2.58;;;19.40;99.90;;;;;;4872758;29;20041;-76
2023/09/11 04:39:13;;;;;;;3.47;2.75;;;19.40;99.90;;;;;;4856124;29;20063;-76
2023/09/11 04:41:39;;;;;;;3.47;2.72;;;19.30;99.90;;;;;;4872738;29;20040;-76
2023/09/11 04:44:04;;;;;;;3.55;2.40;;;19.30;99.90;;;;;;4874156;29;20053;-76
2023/09/11 04:46:31;;;;;;;;;;;19.30;99.90;;;;;;4874332;29;20496;-76
2023/09/11 04:48:57;;;;;;;3.40;2.25;;;19.30;99.90;;;;;;4876290;29;19928;-76
2023/09/11 04:51:23;;;;;;;3.85;2.78;;;19.30;99.90;;;;;;4876230;29;20048;-76
2023/09/11 04:53:48;;;;;;;;;;;19.30;99.90;;;;;;4876496;29;20041;-76
2023/09/11 04:56:14;;;;;;;3.55;2.20;;;19.30;99.90;;;;;;4875441;29;20300;-76
2023/09/11 04:58:40;;;;;;;2.83;2.30;;;19.30;99.90;;;;;;4875336;29;20087;-76
2023/09/11 05:01:05;;;;;;;;;;;19.30;99.90;;;;;;4859333;29;20040;-76
2023/09/11 05:03:31;;;;;;;3.40;2.40;;;19.30;99.90;;;;;;4875483;29;19967;-76
2023/09/11 05:05:56;;;;;;;;;;;19.30;99.90;;;;;;4874999;29;20041;-76
2023/09/11 05:08:22;;;;;;;2.47;2.17;;;19.30;99.90;;;;;;4875252;29;19967;-76
2023/09/11 05:10:48;;;;;;;;;;;19.30;99.90;;;;;;4874543;29;20055;-76
2023/09/11 05:13:15;;;;;;;2.63;2.10;;;19.30;99.90;;;;;;4874022;29;19923;-76
2023/09/11 05:15:40;;;;;;;4.03;2.05;;;19.30;99.90;;;;;;4859780;29;20374;-76
2023/09/11 05:18:06;;;;;;;;;;;19.40;99.90;;;;;;4876163;29;20049;-76
2023/09/11 05:20:32;;;;;;;2.53;2.10;;;19.40;99.90;;;;;;4874006;29;19945;-76
2023/09/11 05:22:57;;;;;;;;;;;19.50;99.90;;;;;;4882642;29;20076;-76
2023/09/11 05:25:23;;;;;;;3.00;2.28;;;19.50;99.90;;;;;;4872916;29;19923;-76
2023/09/11 05:27:50;;;;;;;2.63;2.00;;;19.50;99.90;;;;;;4875548;29;20051;-76
2023/09/11 05:30:16;;;;;;;2.90;2.08;;;19.50;99.90;;;;;;4875157;29;20063;-76
2023/09/11 05:32:41;;;;;;;4.65;2.30;;;19.60;99.90;;;;;;4874838;29;20197;-76
2023/09/11 05:35:08;;;;;;;3.08;2.22;;;19.60;99.90;;;;;;4875534;29;20426;-76
2023/09/11 05:37:33;;;;;;;2.47;1.98;;;19.60;99.90;;;;;;4856811;29;20530;-76
2023/09/11 05:40:00;;;;;;;3.92;2.03;;;19.70;99.90;;;;;;4874416;29;20089;-76
2023/09/11 05:42:26;;;;;;;3.65;2.17;;;19.70;99.90;;;;;;4875448;29;20140;-76
2023/09/11 05:44:52;;;;;;;2.88;2.35;;;19.80;99.90;;;;;;4858953;29;20056;-76
2023/09/11 05:47:18;;;;;;;2.45;1.88;;;19.70;99.90;;;;;;4874326;29;20049;-76
2023/09/11 05:49:43;;;;;;;;;;;19.80;99.90;;;;;;4874411;29;21302;-76
2023/09/11 05:52:09;;;;;;;2.83;2.10;;;19.80;99.90;;;;;;4870013;29;19930;-76
2023/09/11 05:54:35;;;;;;;3.33;2.58;;;19.90;99.90;;;;;;4874330;29;20061;-76
2023/09/11 05:57:03;;;;;;;;;;;19.90;99.90;;;;;;4872035;29;20044;-76
2023/09/11 05:59:29;;;;;;;3.28;2.28;;;19.90;99.90;;;;;;4875235;29;19923;-76
2023/09/11 06:01:56;;;;;;;7.05;3.10;;;20.00;99.90;;;;;;4875078;29;20045;-76
2023/09/11 06:04:21;;;;;;;3.13;2.15;;;20.00;99.90;;;;;;4874995;29;20052;-76
2023/09/11 06:06:47;;;;;;;3.25;2.03;;;20.10;99.90;;;;;;4854611;29;20049;-76
2023/09/11 06:09:13;;;;;;;;;;;20.10;99.90;;;;;;4874722;29;20081;-76
2023/09/11 06:11:38;;;;;;;2.83;2.30;;;20.20;99.90;;;;;;4875175;29;19920;-76
2023/09/11 06:14:06;;;;;;;3.80;2.40;;;20.20;99.90;;;;;;4844407;29;20048;-76
2023/09/11 06:16:31;;;;;;;3.22;2.38;;;20.30;99.90;;;;;;4859620;29;20116;-76
2023/09/11 06:18:58;;;;;;;2.22;2.03;;;20.40;99.90;;;;;;4859972;29;20120;-76
2023/09/11 06:21:24;;;;;;;3.80;2.60;;;20.40;99.90;;;;;;4875207;29;20061;-76
2023/09/11 06:23:50;;;;;;;2.42;2.00;;;20.50;99.90;;;;;;4874762;29;20045;-76
2023/09/11 06:26:16;;;;;;;2.60;2.00;;;20.50;99.90;;;;;;4875129;29;20044;-77
2023/09/11 06:28:42;;;;;;;2.28;1.77;;;20.60;99.90;;;;;;4874946;29;20077;-76
2023/09/11 06:31:09;;;;;;;3.97;1.95;;;20.60;99.90;;;;;;4859538;29;20049;-76
2023/09/11 06:33:35;;;;;;;2.90;2.10;;;20.70;99.90;;;;;;4875201;29;20052;-76
2023/09/11 06:36:01;;;;;;;2.10;1.67;;;20.70;99.90;;;;;;4859823;29;20548;-76
2023/09/11 06:38:26;;;;;;;2.45;2.03;;;20.80;99.90;;;;;;4875159;29;20480;-76
2023/09/11 06:40:52;;;;;;;2.22;1.65;;;20.80;99.90;;;;;;4875019;29;20037;-76
2023/09/11 06:43:18;;;;;;;2.33;2.10;;;21.00;99.90;;;;;;4862787;29;20683;-76
2023/09/11 06:45:43;;;;;;;3.08;2.22;;;21.20;99.90;;;;;;4878509;29;20137;-77
2023/09/11 06:48:12;;;;;;;2.88;2.00;;;21.60;99.90;;;;;;4878355;29;20056;-77
2023/09/11 06:50:40;;;;;;;4.38;2.25;;;21.90;99.90;;;;;;4878416;29;20053;-77
2023/09/11 06:53:08;;;;;;;4.03;2.50;;;22.20;99.90;;;;;;4878287;29;20124;-77
2023/09/11 06:55:34;;;;;;;3.40;2.38;;;22.60;99.90;;;;;;4878279;29;20080;-77
2023/09/11 06:58:01;;;;;;;3.80;3.08;;;22.80;99.90;;;;;;4878343;29;20083;-76
2023/09/11 07:00:27;;;;;;;5.18;2.90;;;23.00;18.90;;;;;;4878268;29;20537;-76
2023/09/11 07:02:55;;;;;;;4.03;3.10;;;23.20;99.90;;;;;;4878331;29;20049;-76
2023/09/11 07:05:22;;;;;;;3.20;2.70;;;23.30;99.90;;;;;;4878276;29;20053;-77
2023/09/11 07:07:48;;;;;;;3.78;2.65;;;23.40;1.00;;;;;;4878003;29;20565;-77
2023/09/11 07:10:15;;;;;;;3.10;2.65;;;23.50;1.00;;;;;;4878103;29;20053;-77
2023/09/11 07:12:41;;;;;;;4.05;2.80;;;23.50;99.90;;;;;;4862435;29;20041;-77
2023/09/11 07:15:07;;;;;;;4.47;2.70;;;23.60;99.90;;;;;;4878009;29;20138;-77
2023/09/11 07:17:33;;;;;;;6.05;3.00;;;23.80;84.00;;;;;;4862543;29;20053;-77
2023/09/11 07:19:59;;;;;;;3.63;2.80;;;23.90;1.00;;;;;;4877958;29;20101;-77
2023/09/11 07:22:25;;;;;;;5.28;2.97;;;24.10;1.00;;;;;;4877833;29;20048;-77
2023/09/11 07:24:50;;;;;;;3.10;2.63;;;24.30;1.00;;;;;;4877987;29;20056;-77
2023/09/11 07:27:16;;;;;;;5.47;3.08;;;24.40;99.90;;;;;;4862231;29;20060;-77
2023/09/11 07:29:42;;;;;;;4.65;3.00;;;24.50;99.90;;;;;;4877778;29;20084;-77
2023/09/11 07:32:08;;;;;;;5.13;3.38;;;24.70;99.90;;;;;;4877862;29;20037;-77
2023/09/11 07:34:34;;;;;;;4.95;3.47;;;24.70;1.00;;;;;;4877679;29;20053;-76
2023/09/11 07:37:00;;;;;;;3.85;3.00;;;24.70;98.50;;;;;;4847019;29;20080;-76
2023/09/11 07:39:25;;;;;;;3.88;2.80;;;24.70;99.90;;;;;;4877535;29;20049;-76
2023/09/11 07:41:51;;;;;;;3.58;2.72;;;24.80;99.90;;;;;;4877416;29;20056;-76
2023/09/11 07:44:17;;;;;;;4.38;3.00;;;24.90;99.90;;;;;;4877842;29;20044;-77
2023/09/11 07:46:42;;;;;;;5.18;2.88;;;25.00;1.00;;;;;;4877552;29;20425;-76
2023/09/11 07:49:08;;;;;;;4.63;2.90;;;25.20;75.10;;;;;;4862005;29;20060;-76
2023/09/11 07:51:34;;;;;;;5.30;2.92;;;25.30;99.90;;;;;;4877677;29;20056;-76
2023/09/11 07:54:00;;;;;;;3.97;2.55;;;25.40;60.00;;;;;;4862062;29;20037;-76
2023/09/11 07:56:25;;;;;;;3.50;2.50;;;25.50;1.00;;;;;;4877427;29;20610;-76
2023/09/11 07:58:51;;;;;;;3.03;2.70;;;25.60;1.00;;;;;;4861969;29;20049;-76
2023/09/11 08:01:25;;;;;;;4.55;2.45;;;25.60;99.90;;;;;;4861799;29;20045;-76
2023/09/11 08:03:51;;;;;;;3.75;2.53;;;25.80;1.00;;;;;;4847435;29;20342;-76
2023/09/11 08:06:17;;;;;;;3.28;2.53;;;25.90;1.00;;;;;;4877312;29;20072;-76
2023/09/11 08:08:42;;;;;;;4.57;2.30;;;26.00;99.90;;;;;;4846274;29;20163;-76
2023/09/11 08:11:16;;;;;;;4.93;2.50;;;26.10;99.90;;;;;;4861771;29;20052;-76
2023/09/11 08:13:46;;;;;;;3.88;2.60;;;26.20;99.90;;;;;;4861684;29;20044;-76
2023/09/11 08:16:13;;;;;;;2.65;2.13;;;26.20;1.00;;;;;;4861389;29;20501;-76
2023/09/11 08:18:38;;;;;;;3.17;2.50;;;26.30;45.00;;;;;;4877080;29;20041;-76
2023/09/11 08:21:05;;;;;;;3.83;2.40;;;26.50;71.70;;;;;;4861706;29;20465;-76
2023/09/11 08:23:30;;;;;;;2.40;2.20;;;26.60;1.00;;;;;;4877261;29;20185;-77
2023/09/11 08:26:01;;;;;;;4.50;2.30;;;26.80;11.80;;;;;;4846035;29;20150;-76
2023/09/11 08:28:28;;;;;;;3.17;2.33;;;26.90;99.90;;;;;;4876808;29;20089;-77
2023/09/11 08:30:53;;;;;;;2.90;2.55;;;27.00;99.90;;;;;;4876376;29;20489;-77
2023/09/11 08:33:21;;;;;;;3.03;2.38;;;27.10;99.90;;;;;;4876957;29;20049;-77
2023/09/11 08:35:48;;;;;;;3.35;2.35;;;27.20;99.90;;;;;;4876647;29;20045;-77
2023/09/11 08:38:15;;;;;;;3.13;2.20;;;27.30;76.60;;;;;;4861063;29;20128;-77
2023/09/11 08:40:42;;;;;;;2.92;2.38;;;27.40;99.90;;;;;;4876535;29;20048;-77
2023/09/11 08:43:08;;;;;;;4.93;2.97;;;27.50;55.30;;;;;;4848160;29;20176;-77
2023/09/11 08:45:34;;;;;;;3.35;2.40;;;27.50;21.60;;;;;;4876502;29;20127;-77
2023/09/11 08:48:04;;;;;;;3.65;2.28;;;27.60;1.00;;;;;;4860588;29;20053;-77
2023/09/11 08:50:39;;;;;;;3.35;2.40;;;27.70;1.00;;;;;;4876218;29;20617;-77
2023/09/11 08:53:05;;;;;;;3.25;2.50;;;27.80;8.90;;;;;;4877281;29;20477;-77
2023/09/11 08:55:33;;;;;;;4.28;2.85;;;27.70;1.00;;;;;;4861138;29;20104;-77
2023/09/11 08:58:11;;;;;;;4.05;2.70;;;27.80;1.00;;;;;;4875982;29;20110;-77
2023/09/11 09:00:37;;;;;;;3.72;2.72;;;27.80;99.90;;;;;;4872184;29;20409;-76
2023/09/11 09:03:04;;;;;;;4.45;2.25;;;27.70;99.90;;;;;;4876244;29;20049;-76
2023/09/11 09:05:33;;;;;;;3.40;2.47;;;27.90;99.90;;;;;;4875438;29;20058;-76
2023/09/11 09:08:01;;;;;;;4.32;2.70;;;28.00;99.90;;;;;;4876202;29;20462;-76
2023/09/11 09:10:27;;;;;;;4.45;2.53;;;28.00;99.90;;;;;;4860416;29;20056;-76
2023/09/11 09:12:56;;;;;;;3.83;2.47;;;28.10;99.90;;;;;;4875997;29;20037;-76
2023/09/11 09:15:23;;;;;;;3.47;2.40;;;27.90;99.90;;;;;;4875665;29;20048;-77
2023/09/11 09:17:50;;;;;;;3.55;2.72;;;28.00;99.90;;;;;;4860487;29;20079;-77
2023/09/11 09:20:17;;;;;;;4.15;3.63;;;28.00;99.90;;;;;;4860180;29;20113;-77
2023/09/11 09:22:58;;;;;;;5.43;3.10;;;27.70;99.90;;;;;;4860897;29;20156;-77
2023/09/11 09:25:25;;;;;;;3.00;2.58;;;27.70;99.90;;;;;;4860496;29;20532;-77
2023/09/11 09:27:51;;;;;;;4.18;3.10;;;27.80;99.90;;;;;;4845277;29;20557;-77
2023/09/11 09:30:23;;;;;;;7.35;3.35;;;27.70;99.90;;;;;;4876453;29;20052;-77
2023/09/11 09:32:50;;;;;;;4.13;3.03;;;27.60;99.90;;;;;;4876368;29;20053;-76
2023/09/11 09:35:25;;;;;;;3.70;2.67;;;27.80;99.90;;;;;;4876422;29;20537;-77
2023/09/11 09:37:51;;;;;;;2.65;2.25;;;27.90;99.90;;;;;;4860350;29;20048;-77
2023/09/11 09:40:33;;;;;;;3.28;2.40;;;28.00;99.90;;;;;;4876013;29;20435;-77
2023/09/11 09:43:01;;;;;;;4.05;3.30;;;28.00;99.90;;;;;;4875719;29;20197;-77
2023/09/11 09:45:39;;;;;;;3.55;2.50;;;28.00;99.90;;;;;;4860485;29;20052;-77
2023/09/11 09:48:18;;;;;;;3.15;2.45;;;28.10;99.90;;;;;;4875919;29;20065;-77
2023/09/11 09:51:01;;;;;;;3.47;2.40;;;28.10;99.90;;;;;;4876291;29;20068;-77
2023/09/11 09:53:31;;;;;;;4.00;2.50;;;28.20;99.90;;;;;;4875842;29;20045;-77
2023/09/11 09:56:03;;;;;;;4.90;2.92;;;28.20;99.90;;;;;;4875446;29;20049;-77
2023/09/11 09:58:33;;;;;;;3.92;2.92;;;28.10;99.90;;;;;;4875381;29;20044;-77
2023/09/11 10:01:07;;;;;;;5.32;3.10;;;28.10;99.90;;;;;;4860139;29;20561;-77
2023/09/11 10:03:39;;;;;;;5.95;3.15;;;28.10;73.80;;;;;;4875726;29;20057;-77
2023/09/11 10:06:17;;;;;;;4.20;2.88;;;28.10;60.10;;;;;;4876001;29;20064;-77
2023/09/11 10:08:43;;;;;;;6.15;3.42;;;28.10;99.90;;;;;;4875603;29;20052;-78
2023/09/11 10:11:27;;;;;;;4.00;2.97;;;28.00;96.60;;;;;;4860029;29;20508;-77
2023/09/11 10:13:56;;;;;;;3.83;2.80;;;28.20;99.90;;;;;;4875302;29;20036;-76
2023/09/11 10:16:24;;;;;;;2.97;2.30;;;28.20;99.90;;;;;;4875861;29;20048;-77
2023/09/11 10:18:51;;;;;;;2.50;2.30;;;28.30;99.90;;;;;;4863729;29;20057;-77
2023/09/11 10:21:18;;;;;;;4.50;3.20;;;28.30;99.90;;;;;;4863909;29;20064;-77
2023/09/11 10:23:44;;;;;;;6.05;4.03;;;28.30;70.40;;;;;;4879159;29;20045;-77
2023/09/11 10:26:20;;;;;;;3.90;3.40;;;28.20;99.90;;;;;;4863906;29;20148;-78
2023/09/11 10:28:48;;;;;;;;;;;28.30;99.90;;;;;;4879652;29;20500;-78
2023/09/11 10:31:23;;;;;;;4.95;3.28;;;28.30;96.90;;;;;;4866322;29;19927;-77
2023/09/11 10:33:57;;;;;;;4.03;3.20;;;28.40;84.50;;;;;;4879025;29;20080;-77
2023/09/11 10:36:29;;;;;;;3.55;2.90;;;28.60;99.90;;;;;;4879364;29;20040;-77
2023/09/11 10:38:59;;;;;;;4.53;3.42;;;28.80;99.90;;;;;;4863582;29;20048;-77
2023/09/11 10:41:26;;;;;;;7.10;5.35;;;28.90;42.80;;;;;;4866005;29;20048;-77
2023/09/11 10:43:52;;;;;;;6.80;4.85;;;28.70;37.00;;;;;;4878714;29;20076;-77
2023/09/11 10:46:21;;;;;;;9.18;6.22;;;28.60;99.90;;;;;;4878765;29;20076;-77
2023/09/11 10:48:47;;;;;;;5.20;3.63;;;28.30;99.90;;;;;;4878676;29;20048;-77
2023/09/11 10:51:14;;;;;;;5.78;4.18;;;28.70;99.90;;;;;;4863204;29;20041;-77
2023/09/11 10:53:40;;;;;;;5.93;4.30;;;28.70;99.90;;;;;;4847731;29;20045;-77
2023/09/11 10:56:07;;;;;;;5.15;4.30;;;28.80;96.00;;;;;;4878481;29;20049;-77
2023/09/11 10:58:34;;;;;;;5.35;4.03;;;28.80;36.00;;;;;;4878227;29;20053;-77
2023/09/11 11:01:03;;;;;;;7.80;4.45;;;28.90;94.90;;;;;;4878506;29;20045;-77
2023/09/11 11:03:30;;;;;;;5.43;4.88;;;29.00;90.00;;;;;;4878344;29;20523;-77
2023/09/11 11:05:59;;;;;;;5.47;3.80;;;29.00;99.90;;;;;;4863331;29;20045;-77
2023/09/11 11:08:25;;;;;;;4.97;4.32;;;29.10;21.70;;;;;;4878342;29;20539;-77
2023/09/11 11:10:52;;;;;;;4.85;3.67;;;29.10;1.00;;;;;;4878567;29;20105;-77
2023/09/11 11:13:18;;;;;;;5.00;3.55;;;29.20;1.00;;;;;;4862796;29;20056;-77
2023/09/11 11:15:44;;;;;;;7.03;4.10;;;29.20;1.00;;;;;;4878202;29;20049;-78
2023/09/11 11:18:09;;;;;;;4.30;3.67;;;29.20;91.60;;;;;;4878325;29;20512;-77
2023/09/11 11:20:36;;;;;;;4.70;3.83;;;29.30;58.40;;;;;;4862616;29;20088;-77
2023/09/11 11:23:10;;;;;;;5.47;3.97;;;29.30;99.90;;;;;;4862528;29;20053;-77
2023/09/11 11:25:36;;;;;;;7.10;4.28;;;29.60;99.90;;;;;;4878191;29;20045;-77
2023/09/11 11:28:22;;;;;;;6.13;3.53;;;29.70;99.90;;;;;;4877404;29;20053;-77
2023/09/11 11:30:52;;;;;;;3.80;3.25;;;29.80;1.00;;;;;;4877652;29;20517;-77
2023/09/11 11:33:24;;;;;;;4.90;3.05;;;29.90;11.90;;;;;;4878136;29;20085;-77
2023/09/11 11:35:52;;;;;;;5.72;3.10;;;29.90;99.90;;;;;;4877790;29;20048;-77
2023/09/11 11:38:19;;;;;;;5.57;4.15;;;29.90;99.90;;;;;;4878076;29;20053;-77
2023/09/11 11:40:47;;;;;;;3.35;2.92;;;29.60;1.00;;;;;;4877597;29;20048;-77
2023/09/11 11:43:14;;;;;;;9.52;5.50;;;29.90;1.00;;;;;;4877961;29;20516;-78
2023/09/11 11:45:47;;;;;;;4.65;3.40;;;29.40;1.00;;;;;;4877951;29;20458;-77
2023/09/11 11:48:13;;;;;;;4.75;3.45;;;29.60;58.40;;;;;;4877827;29;20470;-77
2023/09/11 11:50:43;;;;;;;3.85;3.00;;;29.70;1.00;;;;;;4877511;29;20176;-77
2023/09/11 11:53:20;;;;;;;3.92;2.70;;;29.80;99.90;;;;;;4861906;29;20045;-77
2023/09/11 11:55:46;;;;;;;5.25;3.50;;;30.00;99.90;;;;;;4877772;29;20049;-77
2023/09/11 11:58:13;;;;;;;5.80;4.53;;;29.90;99.90;;;;;;4877141;29;20136;-77
2023/09/11 12:01:00;;;;;;;7.45;4.30;;;29.70;99.90;;;;;;4877372;29;20061;-77
2023/09/11 12:03:26;;;;;;;;;;;29.60;99.90;;;;;;4876920;29;20065;-77
2023/09/11 12:05:52;;;;;;;5.97;4.10;;;29.50;99.90;;;;;;4877046;29;20010;-77
2023/09/11 12:08:18;;;;;;;7.45;4.45;;;29.60;1.00;;;;;;4875850;29;20127;-77
2023/09/11 12:10:45;;;;;;;7.63;4.88;;;29.60;99.90;;;;;;4876848;29;20192;-77
2023/09/11 12:13:24;;;;;;;7.97;4.00;;;29.60;1.00;;;;;;4861791;29;20056;-78
2023/09/11 12:15:56;;;;;;;4.97;3.78;;;29.40;1.00;;;;;;4876936;29;20093;-77
2023/09/11 12:18:23;;;;;;;5.78;3.60;;;29.50;1.00;;;;;;4877133;29;20041;-77
2023/09/11 12:20:54;;;;;;;3.85;2.70;;;29.60;99.90;;;;;;4876998;29;20389;-78
2023/09/11 12:23:20;;;;;;;6.35;3.45;;;29.80;1.00;;;;;;4877033;29;20052;-78
2023/09/11 12:25:46;;;;;;;4.78;3.33;;;29.80;99.90;;;;;;4876238;29;20041;-78
2023/09/11 12:28:12;;;;;;;4.07;2.90;;;29.50;99.90;;;;;;4874849;29;20049;-77
2023/09/11 12:30:40;;;;;;;3.42;2.78;;;29.70;1.00;;;;;;4875448;29;20052;-78
2023/09/11 12:33:09;;;;;;;4.15;2.85;;;29.80;99.90;;;;;;4876745;29;20056;-78
2023/09/11 12:35:36;;;;;;;3.92;2.90;;;29.70;99.90;;;;;;4874248;29;21374;-78
2023/09/11 12:38:02;;;;;;;5.40;2.60;;;29.60;99.90;;;;;;4845273;29;20155;-78
2023/09/11 12:40:29;;;;;;;5.15;2.80;;;29.60;99.90;;;;;;4869729;29;20133;-77
2023/09/11 12:42:55;;;;;;;5.00;2.75;;;29.50;99.90;;;;;;4868830;29;20060;-77
2023/09/11 12:45:21;;;;;;;4.22;2.88;;;29.40;1.00;;;;;;4873212;29;20052;-78
2023/09/11 12:47:47;;;;;;;5.63;3.13;;;29.40;15.90;;;;;;4865497;29;20132;-78
2023/09/11 12:50:13;;;;;;;4.40;2.85;;;29.50;19.00;;;;;;4854905;29;20516;-78
2023/09/11 12:52:39;;;;;;;3.75;2.55;;;29.30;98.90;;;;;;4874696;29;20045;-78
2023/09/11 12:55:05;;;;;;;3.92;2.90;;;29.70;99.90;;;;;;4870104;29;20046;-77
2023/09/11 12:57:31;;;;;;;8.52;3.15;;;29.70;82.90;;;;;;4874654;29;20045;-78